createdAt,value
2022-10-22T00:01:15.704Z,100705.56
2022-10-22T00:03:42.125Z,100704.75
2022-10-22T00:06:08.552Z,100703.94
2022-10-22T00:08:35.021Z,100703.00
2022-10-22T00:11:08.926Z,100701.94
2022-10-22T00:13:35.373Z,100706.25
2022-10-22T00:16:01.776Z,100705.41
2022-10-22T00:18:28.169Z,100713.38
2022-10-22T00:20:54.545Z,100715.19
2022-10-22T00:23:21.099Z,100712.50
2022-10-22T00:25:47.613Z,100713.25
2022-10-22T00:28:14.016Z,100711.44
2022-10-22T00:30:40.475Z,100714.09
2022-10-22T00:33:06.861Z,100720.34
2022-10-22T00:35:33.354Z,100718.47
2022-10-22T00:37:59.742Z,100710.50
2022-10-22T00:40:26.141Z,100715.84
2022-10-22T00:42:52.522Z,100715.84
2022-10-22T00:45:21.421Z,100721.22
2022-10-22T00:48:01.615Z,100715.94
2022-10-22T00:50:34.062Z,100724.91
2022-10-22T00:53:00.438Z,100720.41
2022-10-22T00:55:27.070Z,100726.72
2022-10-22T00:57:54.201Z,100727.59
2022-10-22T01:00:21.141Z,100722.16
2022-10-22T01:02:48.680Z,100717.72
2022-10-22T01:05:15.205Z,100725.72
2022-10-22T01:07:45.166Z,100723.97
2022-10-22T01:10:26.384Z,100727.66
2022-10-22T01:13:15.333Z,100732.31
2022-10-22T01:15:57.453Z,100723.81
2022-10-22T01:18:37.895Z,100729.03
2022-10-22T01:21:22.388Z,100730.16
2022-10-22T01:23:57.699Z,100733.84
2022-10-22T01:26:57.269Z,100736.72
2022-10-22T01:29:35.780Z,100731.72
2022-10-22T01:32:05.379Z,100733.72
2022-10-22T01:34:31.619Z,100739.31
2022-10-22T01:36:58.003Z,100742.41
2022-10-22T01:39:24.384Z,100733.69
2022-10-22T01:41:50.787Z,100731.00
2022-10-22T01:47:32.345Z,100741.31
2022-10-22T01:50:32.271Z,100730.06
2022-10-22T01:53:17.675Z,100744.28
2022-10-22T01:56:05.433Z,100739.84
2022-10-22T01:58:34.827Z,100738.22
2022-10-22T02:01:19.513Z,100736.63
2022-10-22T02:04:32.357Z,100745.66
2022-10-22T02:07:00.891Z,100729.84
2022-10-22T02:09:27.994Z,100738.09
2022-10-22T02:11:54.431Z,100731.13
2022-10-22T02:14:21.107Z,100733.00
2022-10-22T02:16:48.059Z,100731.41
2022-10-22T02:19:37.911Z,100717.19
2022-10-22T02:22:04.503Z,100717.31
2022-10-22T02:24:30.991Z,100711.25
2022-10-22T02:27:03.304Z,100706.88
2022-10-22T02:29:50.321Z,100699.03
2022-10-22T02:32:19.855Z,100700.94
2022-10-22T02:34:46.247Z,100698.44
2022-10-22T02:37:12.859Z,100701.09
2022-10-22T02:39:39.283Z,100712.88
2022-10-22T02:42:05.699Z,100712.94
2022-10-22T02:44:32.124Z,100704.97
2022-10-22T02:46:58.538Z,100705.91
2022-10-22T02:49:24.938Z,100717.47
2022-10-22T02:51:51.311Z,100715.88
2022-10-22T02:54:17.687Z,100709.88
2022-10-22T02:56:44.069Z,100715.38
2022-10-22T02:59:10.466Z,100709.22
2022-10-22T03:01:36.872Z,100713.75
2022-10-22T03:04:03.408Z,100708.47
2022-10-22T03:06:29.805Z,100713.88
2022-10-22T03:08:56.238Z,100717.50
2022-10-22T03:11:22.635Z,100715.84
2022-10-22T03:13:49.007Z,100723.00
2022-10-22T03:16:15.392Z,100720.44
2022-10-22T03:18:41.768Z,100723.97
2022-10-22T03:21:12.338Z,100728.34
2022-10-22T03:23:39.846Z,100730.81
2022-10-22T03:26:06.241Z,100726.97
2022-10-22T03:28:33.075Z,100735.00
2022-10-22T03:30:59.484Z,100728.56
2022-10-22T03:33:25.863Z,100734.78
2022-10-22T03:35:52.286Z,100740.16
2022-10-22T03:38:18.660Z,100742.78
2022-10-22T03:40:45.061Z,100747.13
2022-10-22T03:43:11.443Z,100753.16
2022-10-22T03:48:09.223Z,100768.28
2022-10-22T03:50:35.638Z,100768.97
2022-10-22T03:53:02.016Z,100764.28
2022-10-22T03:55:28.442Z,100780.19
2022-10-22T03:57:54.834Z,100774.66
2022-10-22T04:00:21.290Z,100773.78
2022-10-22T04:02:47.679Z,100778.09
2022-10-22T04:07:45.389Z,100776.13
2022-10-22T04:10:11.775Z,100779.56
2022-10-22T04:12:38.217Z,100785.84
2022-10-22T04:15:05.020Z,100780.50
2022-10-22T04:17:37.837Z,100783.09
2022-10-22T04:20:04.754Z,100790.28
2022-10-22T04:22:33.688Z,100785.91
2022-10-22T04:25:00.060Z,100779.63
2022-10-22T04:27:30.011Z,100784.91
2022-10-22T04:29:56.376Z,100775.78
2022-10-22T04:32:22.763Z,100772.25
2022-10-22T04:34:49.128Z,100774.09
2022-10-22T04:37:15.524Z,100771.44
2022-10-22T04:39:41.907Z,100776.59
2022-10-22T04:42:08.304Z,100776.66
2022-10-22T04:44:34.773Z,100776.59
2022-10-22T04:47:01.237Z,100777.41
2022-10-22T04:49:27.667Z,100771.19
2022-10-22T04:51:54.077Z,100778.41
2022-10-22T04:54:20.485Z,100778.47
2022-10-22T04:56:46.880Z,100785.63
2022-10-22T04:59:13.395Z,100786.56
2022-10-22T05:01:42.978Z,100790.19
2022-10-22T05:04:14.173Z,100782.13
2022-10-22T05:06:40.587Z,100781.28
2022-10-22T05:09:08.501Z,100778.75
2022-10-22T05:11:36.064Z,100778.81
2022-10-22T05:14:04.040Z,100786.78
2022-10-22T05:16:30.589Z,100784.97
2022-10-22T05:18:58.325Z,100789.53
2022-10-22T05:21:24.726Z,100790.38
2022-10-22T05:23:51.174Z,100790.44
2022-10-22T05:26:19.156Z,100792.25
2022-10-22T05:28:46.567Z,100794.06
2022-10-22T05:31:13.452Z,100795.94
2022-10-22T05:33:40.078Z,100799.69
2022-10-22T05:36:07.612Z,100798.88
2022-10-22T05:38:34.460Z,100802.47
2022-10-22T05:41:08.773Z,100801.56
2022-10-22T05:43:35.358Z,100799.75
2022-10-22T05:46:03.030Z,100801.66
2022-10-22T05:48:29.478Z,100796.44
2022-10-22T05:50:55.873Z,100802.81
2022-10-22T05:53:23.375Z,100803.53
2022-10-22T05:55:49.762Z,100807.13
2022-10-22T05:58:16.173Z,100808.16
2022-10-22T06:00:42.578Z,100810.03
2022-10-22T06:03:09.056Z,100805.66
2022-10-22T06:05:36.331Z,100807.53
2022-10-22T06:08:02.705Z,100813.81
2022-10-22T06:10:29.085Z,100819.03
2022-10-22T06:12:55.465Z,100814.69
2022-10-22T06:15:21.855Z,100821.84
2022-10-22T06:17:48.245Z,100829.09
2022-10-22T06:20:14.724Z,100830.91
2022-10-22T06:22:41.282Z,100824.66
2022-10-22T06:25:08.129Z,100823.84
2022-10-22T06:27:34.780Z,100823.97
2022-10-22T06:30:01.180Z,100823.97
2022-10-22T06:32:27.558Z,100821.34
2022-10-22T06:34:53.958Z,100825.72
2022-10-22T06:37:20.361Z,100829.31
2022-10-22T06:39:46.804Z,100829.31
2022-10-22T06:42:13.225Z,100830.34
2022-10-22T06:44:39.970Z,100833.19
2022-10-22T06:47:06.347Z,100839.34
2022-10-22T06:49:32.785Z,100846.41
2022-10-22T06:51:59.170Z,100849.09
2022-10-22T06:54:25.619Z,100853.63
2022-10-22T06:56:52.048Z,100852.78
2022-10-22T06:59:18.494Z,100853.63
2022-10-22T07:01:45.064Z,100850.16
2022-10-22T07:04:11.610Z,100864.50
2022-10-22T07:06:38.080Z,100869.69
2022-10-22T07:09:04.573Z,100863.19
2022-10-22T07:11:41.761Z,100870.25
2022-10-22T07:14:08.449Z,100869.25
2022-10-22T07:16:34.901Z,100872.72
2022-10-22T07:19:01.954Z,100871.78
2022-10-22T07:21:28.548Z,100877.97
2022-10-22T07:23:54.949Z,100881.50
2022-10-22T07:26:21.818Z,100879.66
2022-10-22T07:28:48.322Z,100877.66
2022-10-22T07:31:15.145Z,100881.19
2022-10-22T07:33:41.540Z,100878.28
2022-10-22T07:36:10.802Z,100893.22
2022-10-22T07:38:37.179Z,100895.75
2022-10-22T07:41:03.743Z,100902.78
2022-10-22T07:43:30.171Z,100909.63
2022-10-22T07:45:56.608Z,100910.13
2022-10-22T07:48:23.425Z,100916.19
2022-10-22T07:50:50.473Z,100914.22
2022-10-22T07:53:16.982Z,100921.03
2022-10-22T07:55:43.386Z,100921.56
2022-10-22T07:58:09.761Z,100917.75
2022-10-22T08:00:36.251Z,100916.53
2022-10-22T08:03:05.457Z,100912.69
2022-10-22T08:05:32.176Z,100922.19
2022-10-22T08:07:58.838Z,100924.59
2022-10-22T08:10:25.208Z,100915.38
2022-10-22T08:12:51.599Z,100921.28
2022-10-22T08:15:18.027Z,100935.22
2022-10-22T08:17:44.575Z,100931.41
2022-10-22T08:20:11.463Z,100941.16
2022-10-22T08:22:37.860Z,100933.88
2022-10-22T08:25:04.659Z,100940.19
2022-10-22T08:27:31.062Z,100947.09
2022-10-22T08:29:57.476Z,100944.22
2022-10-22T08:32:24.026Z,100952.19
2022-10-22T08:34:50.446Z,100947.22
2022-10-22T08:37:16.867Z,100955.06
2022-10-22T08:39:43.977Z,100957.63
2022-10-22T08:42:37.248Z,100955.59
2022-10-22T08:45:20.222Z,100956.97
2022-10-22T08:48:02.691Z,100964.91
2022-10-22T08:50:41.628Z,100960.28
2022-10-22T08:53:12.924Z,100947.78
2022-10-22T08:55:40.097Z,100959.34
2022-10-22T08:58:09.437Z,100962.03
2022-10-22T09:00:46.898Z,100961.22
2022-10-22T09:03:37.752Z,100960.94
2022-10-22T09:06:09.903Z,100962.63
2022-10-22T09:08:36.902Z,100964.97
2022-10-22T09:11:13.586Z,100966.38
2022-10-22T09:13:40.862Z,100959.88
2022-10-22T09:16:21.699Z,100964.94
2022-10-22T09:19:13.213Z,100959.81
2022-10-22T09:21:58.669Z,100961.38
2022-10-22T09:24:34.211Z,100965.69
2022-10-22T09:27:01.209Z,100967.31
2022-10-22T09:29:33.972Z,100959.09
2022-10-22T09:32:00.520Z,100964.09
2022-10-22T09:34:26.898Z,100957.72
2022-10-22T09:37:00.911Z,100964.66
2022-10-22T09:39:29.075Z,100956.47
2022-10-22T09:41:55.477Z,100960.59
2022-10-22T09:44:21.933Z,100970.25
2022-10-22T09:46:48.361Z,100969.19
2022-10-22T09:49:16.464Z,100977.00
2022-10-22T09:51:57.010Z,100974.59
2022-10-22T09:54:33.450Z,100976.00
2022-10-22T09:57:24.068Z,100963.22
2022-10-22T09:59:51.229Z,100973.84
2022-10-22T10:02:37.510Z,100974.47
2022-10-22T10:05:05.729Z,100967.06
2022-10-22T10:07:32.668Z,100969.69
2022-10-22T10:09:59.069Z,100969.59
2022-10-22T10:12:43.439Z,100971.09
2022-10-22T10:15:29.910Z,100975.00
2022-10-22T10:18:33.140Z,100980.06
2022-10-22T10:21:10.024Z,100978.16
2022-10-22T10:23:45.781Z,100979.97
2022-10-22T10:26:18.339Z,100977.13
2022-10-22T10:28:47.722Z,100975.94
2022-10-22T10:31:23.425Z,100975.78
2022-10-22T10:33:52.716Z,100972.94
2022-10-22T10:36:51.699Z,100969.91
2022-10-22T10:39:33.457Z,100966.09
2022-10-22T10:42:06.180Z,100969.25
2022-10-22T10:44:37.159Z,100967.38
2022-10-22T10:47:19.806Z,100968.09
2022-10-22T10:49:46.679Z,100976.78
2022-10-22T10:52:36.715Z,100980.97
2022-10-22T10:55:42.001Z,100984.34
2022-10-22T10:58:42.996Z,100983.97
2022-10-22T11:01:16.066Z,100982.81
2022-10-22T11:04:02.227Z,100977.13
2022-10-22T11:06:28.659Z,100978.59
2022-10-22T11:08:58.246Z,100983.50
2022-10-22T11:11:40.993Z,100990.03
2022-10-22T11:14:26.474Z,100979.88
2022-10-22T11:17:01.376Z,100979.38
2022-10-22T11:19:52.327Z,100976.66
2022-10-22T11:22:29.439Z,100980.06
2022-10-22T11:25:16.210Z,100978.47
2022-10-22T11:27:47.729Z,100974.66
2022-10-22T11:30:22.629Z,100982.31
2022-10-22T11:32:53.537Z,100980.22
2022-10-22T11:35:25.856Z,100978.31
2022-10-22T11:38:01.744Z,100981.34
2022-10-22T11:40:38.440Z,100983.50
2022-10-22T11:43:06.609Z,100986.53
2022-10-22T11:45:41.002Z,100976.00
2022-10-22T11:48:14.858Z,100975.53
2022-10-22T11:50:41.127Z,100977.81
2022-10-22T11:53:13.647Z,100978.13
2022-10-22T11:55:39.948Z,100980.66
2022-10-22T11:58:30.712Z,100971.94
2022-10-22T12:00:58.762Z,100977.34
2022-10-22T12:03:37.849Z,100977.66
2022-10-22T12:06:09.909Z,100979.13
2022-10-22T12:08:36.375Z,100979.78
2022-10-22T12:11:12.610Z,100982.69
2022-10-22T12:14:16.052Z,100983.34
2022-10-22T12:16:58.121Z,100983.28
2022-10-22T12:19:27.294Z,100984.41
2022-10-22T12:21:57.545Z,100989.41
2022-10-22T12:24:24.422Z,100988.28
2022-10-22T12:26:50.808Z,100985.38
2022-10-22T12:29:17.248Z,100997.28
2022-10-22T12:31:44.447Z,100991.09
2022-10-22T12:34:17.173Z,100995.19
2022-10-22T12:36:43.935Z,100989.78
2022-10-22T12:39:13.469Z,100995.38
2022-10-22T12:41:39.740Z,100990.25
2022-10-22T12:44:06.318Z,100993.81
2022-10-22T12:46:35.530Z,100983.34
2022-10-22T12:49:03.488Z,100995.25
2022-10-22T12:51:29.865Z,100989.25
2022-10-22T12:53:59.918Z,100988.53
2022-10-22T12:56:31.571Z,101003.50
2022-10-22T12:59:00.267Z,101001.34
2022-10-22T13:01:34.061Z,100998.09
2022-10-22T13:04:17.140Z,100992.69
2022-10-22T13:06:44.523Z,101003.16
2022-10-22T13:09:25.155Z,100997.78
2022-10-22T13:12:02.728Z,101004.63
2022-10-22T13:14:32.453Z,100998.44
2022-10-22T13:17:18.106Z,100999.94
2022-10-22T13:19:53.519Z,101008.78
2022-10-22T13:22:35.737Z,100997.38
2022-10-22T13:25:18.150Z,101007.84
2022-10-22T13:27:48.150Z,101003.31
2022-10-22T13:30:25.684Z,100994.97
2022-10-22T13:32:56.566Z,100991.72
2022-10-22T13:35:27.766Z,100983.63
2022-10-22T13:37:54.290Z,100983.84
2022-10-22T13:40:20.925Z,100987.19
2022-10-22T13:42:47.398Z,100995.09
2022-10-22T13:45:13.842Z,100991.31
2022-10-22T13:47:40.295Z,100991.66
2022-10-22T13:50:12.836Z,100992.25
2022-10-22T13:52:41.541Z,100991.06
2022-10-22T13:55:17.235Z,100985.25
2022-10-22T13:57:43.747Z,100993.06
2022-10-22T14:00:17.997Z,100987.75
2022-10-22T14:02:48.026Z,100999.31
2022-10-22T14:05:15.359Z,100995.69
2022-10-22T14:07:42.015Z,100995.41
2022-10-22T14:10:23.928Z,100989.81
2022-10-22T14:12:53.390Z,100994.56
2022-10-22T14:15:23.483Z,100990.69
2022-10-22T14:17:53.989Z,100987.50
2022-10-22T14:20:21.719Z,100989.88
2022-10-22T14:22:48.819Z,100997.59
2022-10-22T14:25:25.278Z,100997.28
2022-10-22T14:27:54.669Z,100996.75
2022-10-22T14:30:24.703Z,100995.94
2022-10-22T14:32:51.157Z,100999.78
2022-10-22T14:35:19.712Z,100999.78
2022-10-22T14:37:46.289Z,100994.72
2022-10-22T14:40:14.061Z,101002.50
2022-10-22T14:42:41.943Z,100996.75
2022-10-22T14:45:22.526Z,100993.56
2022-10-22T14:47:49.661Z,100991.56
2022-10-22T14:50:16.511Z,100992.97
2022-10-22T14:52:44.239Z,100999.31
2022-10-22T14:55:15.093Z,100996.78
2022-10-22T14:57:41.849Z,101009.38
2022-10-22T15:00:17.703Z,101009.38
2022-10-22T15:02:45.593Z,101008.09
2022-10-22T15:05:12.046Z,101010.16
2022-10-22T15:07:41.183Z,101017.88
2022-10-22T15:10:08.382Z,101022.91
2022-10-22T15:12:34.824Z,101025.78
2022-10-22T15:15:01.262Z,101033.47
2022-10-22T15:17:27.649Z,101029.34
2022-10-22T15:19:54.043Z,101033.16
2022-10-22T15:22:20.438Z,101027.97
2022-10-22T15:24:46.961Z,101039.56
2022-10-22T15:27:13.527Z,101040.56
2022-10-22T15:29:40.498Z,101048.81
2022-10-22T15:32:06.907Z,101053.38
2022-10-22T15:34:34.446Z,101054.34
2022-10-22T15:37:04.531Z,101060.69
2022-10-22T15:39:31.013Z,101056.44
2022-10-22T15:41:58.716Z,101065.59
2022-10-22T15:44:26.727Z,101059.69
2022-10-22T15:46:53.275Z,101067.19
2022-10-22T15:49:19.671Z,101061.34
2022-10-22T15:51:46.131Z,101072.25
2022-10-22T15:54:20.767Z,101070.69
2022-10-22T15:56:47.201Z,101080.88
2022-10-22T15:59:14.573Z,101079.47
2022-10-22T16:01:41.031Z,101081.34
2022-10-22T16:04:07.527Z,101082.38
2022-10-22T16:06:35.504Z,101090.50
2022-10-22T16:09:03.424Z,101090.50
2022-10-22T16:11:30.577Z,101086.38
2022-10-22T16:13:57.455Z,101095.66
2022-10-22T16:16:24.573Z,101092.16
2022-10-22T16:18:51.210Z,101091.34
2022-10-22T16:21:17.841Z,101098.56
2022-10-22T16:23:44.449Z,101104.00
2022-10-22T16:26:11.150Z,101109.31
2022-10-22T16:28:37.542Z,101103.22
2022-10-22T16:31:06.092Z,101112.41
2022-10-22T16:33:41.217Z,101109.81
2022-10-22T16:36:11.686Z,101116.28
2022-10-22T16:38:38.298Z,101118.09
2022-10-22T16:41:11.684Z,101124.44
2022-10-22T16:43:39.937Z,101120.09
2022-10-22T16:46:06.712Z,101129.09
2022-10-22T16:48:33.373Z,101134.41
2022-10-22T16:51:00.099Z,101128.28
2022-10-22T16:53:31.274Z,101135.34
2022-10-22T16:55:57.779Z,101139.00
2022-10-22T16:58:24.166Z,101135.50
2022-10-22T17:00:50.569Z,101141.75
2022-10-22T17:03:17.001Z,101140.00
2022-10-22T17:05:43.389Z,101145.38
2022-10-22T17:08:09.787Z,101138.19
2022-10-22T17:10:36.534Z,101148.13
2022-10-22T17:13:03.846Z,101150.13
2022-10-22T17:15:30.508Z,101158.25
2022-10-22T17:17:58.959Z,101159.34
2022-10-22T17:20:25.315Z,101162.31
2022-10-22T17:22:51.719Z,101161.72
2022-10-22T17:25:25.375Z,101166.44
2022-10-22T17:27:51.919Z,101176.41
2022-10-22T17:30:22.033Z,101172.75
2022-10-22T17:32:51.456Z,101172.97
2022-10-22T17:35:18.008Z,101170.56
2022-10-22T17:37:44.595Z,101175.88
2022-10-22T17:40:11.263Z,101182.44
2022-10-22T17:42:37.665Z,101185.56
2022-10-22T17:45:04.369Z,101188.53
2022-10-22T17:47:30.788Z,101187.84
2022-10-22T17:49:57.218Z,101188.13
2022-10-22T17:52:23.645Z,101190.94
2022-10-22T17:54:50.043Z,101195.66
2022-10-22T17:57:16.454Z,101197.53
2022-10-22T17:59:42.856Z,101194.84
2022-10-22T18:02:16.629Z,101209.09
2022-10-22T18:04:43.005Z,101195.66
2022-10-22T18:07:09.418Z,101204.66
2022-10-22T18:09:35.823Z,101199.41
2022-10-22T18:12:02.222Z,101207.19
2022-10-22T18:14:28.650Z,101205.53
2022-10-22T18:16:55.036Z,101210.75
2022-10-22T18:19:21.877Z,101212.72
2022-10-22T18:21:48.276Z,101207.34
2022-10-22T18:24:14.948Z,101212.50
2022-10-22T18:26:41.758Z,101209.00
2022-10-22T18:29:09.025Z,101214.53
2022-10-22T18:31:36.662Z,101213.66
2022-10-22T18:34:03.071Z,101211.91
2022-10-22T18:36:29.460Z,101217.16
2022-10-22T18:38:59.832Z,101214.25
2022-10-22T18:41:26.503Z,101220.44
2022-10-22T18:43:53.733Z,101215.25
2022-10-22T18:46:20.245Z,101218.03
2022-10-22T18:48:46.731Z,101227.03
2022-10-22T18:51:13.822Z,101225.28
2022-10-22T18:53:40.307Z,101227.09
2022-10-22T18:56:08.278Z,101222.75
2022-10-22T18:58:41.408Z,101227.38
2022-10-22T19:01:09.337Z,101227.59
2022-10-22T19:03:35.783Z,101225.03
2022-10-22T19:06:02.189Z,101225.03
2022-10-22T19:08:28.565Z,101226.03
2022-10-22T19:10:55.055Z,101231.03
2022-10-22T19:13:21.516Z,101231.28
2022-10-22T19:15:48.171Z,101234.13
2022-10-22T19:18:14.550Z,101234.84
2022-10-22T19:20:41.157Z,101241.56
2022-10-22T19:23:07.552Z,101244.50
2022-10-22T19:25:34.604Z,101245.63
2022-10-22T19:28:00.977Z,101248.56
2022-10-22T19:30:27.385Z,101250.69
2022-10-22T19:32:53.763Z,101252.66
2022-10-22T19:35:20.163Z,101254.41
2022-10-22T19:37:48.362Z,101257.00
2022-10-22T19:40:15.150Z,101260.34
2022-10-22T19:42:41.872Z,101265.66
2022-10-22T19:45:08.923Z,101262.09
2022-10-22T19:47:35.291Z,101258.66
2022-10-22T19:50:01.671Z,101258.75
2022-10-22T19:52:30.838Z,101270.59
2022-10-22T19:54:57.233Z,101276.00
2022-10-22T19:57:23.648Z,101275.19
2022-10-22T19:59:50.048Z,101277.13
2022-10-22T20:02:17.184Z,101277.31
2022-10-22T20:04:47.925Z,101280.19
2022-10-22T20:07:16.433Z,101285.56
2022-10-22T20:09:42.830Z,101291.75
2022-10-22T20:12:09.229Z,101291.75
2022-10-22T20:14:35.594Z,101298.22
2022-10-22T20:17:02.003Z,101292.84
2022-10-22T20:19:28.384Z,101300.19
2022-10-22T20:21:54.832Z,101309.16
2022-10-22T20:24:21.295Z,101305.78
2022-10-22T20:26:47.752Z,101307.88
2022-10-22T20:29:14.267Z,101307.94
2022-10-22T20:31:41.069Z,101314.34
2022-10-22T20:34:07.452Z,101309.03
2022-10-22T20:36:33.842Z,101312.53
2022-10-22T20:39:01.956Z,101317.06
2022-10-22T20:41:28.382Z,101313.69
2022-10-22T20:43:55.017Z,101321.03
2022-10-22T20:46:23.403Z,101318.63
2022-10-22T20:49:04.403Z,101319.84
2022-10-22T20:51:30.898Z,101321.78
2022-10-22T20:53:57.381Z,101321.75
2022-10-22T20:56:23.905Z,101319.22
2022-10-22T20:58:50.489Z,101323.81
2022-10-22T21:01:20.237Z,101320.31
2022-10-22T21:03:51.401Z,101318.59
2022-10-22T21:06:18.706Z,101318.91
2022-10-22T21:08:45.171Z,101318.97
2022-10-22T21:11:11.579Z,101315.41
2022-10-22T21:13:38.077Z,101319.84
2022-10-22T21:16:09.352Z,101323.34
2022-10-22T21:18:35.974Z,101328.69
2022-10-22T21:21:04.343Z,101317.19
2022-10-22T21:23:31.351Z,101321.75
2022-10-22T21:25:57.821Z,101315.44
2022-10-22T21:28:24.457Z,101320.97
2022-10-22T21:30:52.949Z,101329.91
2022-10-22T21:33:19.702Z,101321.03
2022-10-22T21:35:55.466Z,101322.97
2022-10-22T21:38:23.644Z,101331.19
2022-10-22T21:40:50.096Z,101331.31
2022-10-22T21:43:17.714Z,101328.78
2022-10-22T21:45:44.121Z,101334.28
2022-10-22T21:48:12.157Z,101328.97
2022-10-22T21:50:39.810Z,101329.94
2022-10-22T21:53:06.638Z,101342.53
2022-10-22T21:55:37.407Z,101334.41
2022-10-22T21:58:05.144Z,101333.59
2022-10-22T22:00:31.510Z,101340.50
2022-10-22T22:02:57.909Z,101338.72
2022-10-22T22:05:24.345Z,101342.22
2022-10-22T22:07:50.788Z,101335.97
2022-10-22T22:10:17.325Z,101339.72
2022-10-22T22:12:44.022Z,101341.69
2022-10-22T22:15:11.044Z,101330.97
2022-10-22T22:17:37.454Z,101332.81
2022-10-22T22:20:04.153Z,101331.19
2022-10-22T22:22:30.515Z,101333.13
2022-10-22T22:24:56.951Z,101333.22
2022-10-22T22:27:23.326Z,101335.09
2022-10-22T22:29:49.726Z,101332.50
2022-10-22T22:32:16.109Z,101341.53
2022-10-22T22:34:42.514Z,101332.69
2022-10-22T22:37:10.267Z,101329.16
2022-10-22T22:39:37.737Z,101331.88
2022-10-22T22:42:04.181Z,101336.50
2022-10-22T22:44:30.572Z,101337.41
2022-10-22T22:46:56.967Z,101333.06
2022-10-22T22:49:23.359Z,101334.91
2022-10-22T22:51:49.727Z,101327.91
2022-10-22T22:54:16.109Z,101330.59
2022-10-22T22:56:42.547Z,101336.88
2022-10-22T22:59:10.106Z,101328.91
2022-10-22T23:01:37.631Z,101338.00
2022-10-22T23:04:10.700Z,101340.78
2022-10-22T23:06:37.146Z,101337.31
2022-10-22T23:09:05.404Z,101330.28
2022-10-22T23:11:32.300Z,101331.22
2022-10-22T23:13:59.989Z,101334.00
2022-10-22T23:16:28.582Z,101334.88
2022-10-22T23:18:55.085Z,101334.97
2022-10-22T23:21:24.162Z,101333.91
2022-10-22T23:23:53.335Z,101333.88
2022-10-22T23:26:22.078Z,101340.13
2022-10-22T23:28:48.524Z,101332.13
2022-10-22T23:31:17.580Z,101341.16
2022-10-22T23:33:44.130Z,101342.94
2022-10-22T23:36:10.570Z,101339.34
2022-10-22T23:38:37.596Z,101338.34
2022-10-22T23:41:04.355Z,101346.19
2022-10-22T23:43:30.837Z,101348.72
2022-10-22T23:45:57.285Z,101352.09
2022-10-22T23:48:23.809Z,101351.16
2022-10-22T23:50:50.313Z,101353.81
2022-10-22T23:53:16.769Z,101350.22
2022-10-22T23:55:43.462Z,101340.47
2022-10-22T23:58:10.683Z,101339.66
